Berlin Township, Michigan
Current Conditions -  °F | °C
As of 10:54 AM on Saturday 25 Oct 2014 (Local Time) from KD95 Reporting Station
Haze Haze  
Wind Chill: 55°   Ceiling: 1000
Heat Index: 55°   Visibility: 5mi
Dew Point: 51°   Wind: 13mph
Humidity: 86%   Direction: 280°W
Pressure: 29.79"   Gusts: NA
Location:  42.9384°N, 82.9255°W
Report Text: KD95 251454Z AUTO 28011KT 5SM BR OVC010 13/10 A2979 RMK AO2 T01250103
Loading
Personal Weather Stations






























Interactive Weather Map
Tropical Storm Tracking
New forecast layout! Learn more

10-Day Weather Forecast

Advertisements
Track Severe Weather on mobile